createdAt,value
2019-03-29T00:01:57.782Z,9.37
2019-03-29T00:04:36.807Z,9.37
2019-03-29T00:07:10.425Z,9.40
2019-03-29T00:09:44.064Z,9.37
2019-03-29T00:12:17.748Z,9.41
2019-03-29T00:14:51.344Z,9.39
2019-03-29T00:17:25.258Z,9.38
2019-03-29T00:19:58.889Z,9.33
2019-03-29T00:22:32.585Z,9.32
2019-03-29T00:25:07.087Z,9.33
2019-03-29T00:27:41.079Z,9.31
2019-03-29T00:30:15.551Z,9.27
2019-03-29T00:32:49.339Z,9.28
2019-03-29T00:35:23.088Z,9.26
2019-03-29T00:38:02.196Z,9.24
2019-03-29T00:40:35.831Z,9.21
2019-03-29T00:43:09.449Z,9.15
2019-03-29T00:45:43.202Z,9.14
2019-03-29T00:48:18.258Z,9.12
2019-03-29T00:50:51.880Z,9.13
2019-03-29T00:53:25.612Z,9.13
2019-03-29T00:56:00.766Z,9.14
2019-03-29T00:58:35.883Z,9.10
2019-03-29T01:01:11.029Z,9.09
2019-03-29T01:03:46.090Z,9.11
2019-03-29T01:06:21.272Z,9.10
2019-03-29T01:09:01.003Z,9.08
2019-03-29T01:11:42.263Z,9.06
2019-03-29T01:14:21.020Z,9.05
2019-03-29T01:17:00.427Z,9.07
2019-03-29T01:19:39.922Z,9.06
2019-03-29T01:22:18.889Z,9.01
2019-03-29T01:24:58.047Z,8.99
2019-03-29T01:27:37.934Z,8.96
2019-03-29T01:30:16.788Z,9.00
2019-03-29T01:32:56.283Z,8.99
2019-03-29T01:35:35.977Z,9.00
2019-03-29T01:38:21.791Z,9.02
2019-03-29T01:40:56.649Z,9.04
2019-03-29T01:43:35.290Z,9.07
2019-03-29T01:46:15.594Z,9.07
2019-03-29T01:48:55.336Z,9.06
2019-03-29T01:51:35.189Z,9.04
2019-03-29T01:54:14.887Z,9.07
2019-03-29T01:56:53.904Z,9.06
2019-03-29T01:59:33.316Z,9.08
2019-03-29T02:02:11.973Z,9.09
2019-03-29T02:04:50.959Z,9.10
2019-03-29T02:07:30.300Z,9.07
2019-03-29T02:10:11.708Z,9.06
2019-03-29T02:12:50.271Z,9.05
2019-03-29T02:15:29.658Z,9.05
2019-03-29T02:18:08.374Z,9.05
2019-03-29T02:20:47.439Z,9.03
2019-03-29T02:23:27.129Z,9.08
2019-03-29T02:26:06.550Z,9.06
2019-03-29T02:28:46.375Z,9.04
2019-03-29T02:31:28.600Z,9.04
2019-03-29T02:34:06.630Z,8.95
2019-03-29T02:36:46.285Z,8.96
2019-03-29T02:39:27.030Z,8.97
2019-03-29T02:42:01.008Z,8.96
2019-03-29T02:44:35.003Z,8.97
2019-03-29T02:47:08.998Z,8.97
2019-03-29T02:49:42.693Z,8.97
2019-03-29T02:52:16.299Z,8.97
2019-03-29T02:54:49.972Z,8.96
2019-03-29T02:57:23.588Z,8.97
2019-03-29T02:59:57.160Z,8.97
2019-03-29T03:02:30.783Z,8.95
2019-03-29T03:05:04.393Z,8.96
2019-03-29T03:07:38.089Z,8.95
2019-03-29T03:10:17.482Z,8.98
2019-03-29T03:12:51.170Z,8.97
2019-03-29T03:15:24.889Z,8.95
2019-03-29T03:17:58.509Z,8.94
2019-03-29T03:20:32.205Z,8.95
2019-03-29T03:23:05.848Z,8.96
2019-03-29T03:25:40.550Z,8.95
2019-03-29T03:28:14.202Z,8.89
2019-03-29T03:30:47.924Z,8.80
2019-03-29T03:33:21.638Z,8.77
2019-03-29T03:35:55.367Z,8.72
2019-03-29T03:38:29.183Z,8.67
2019-03-29T03:41:04.012Z,8.64
2019-03-29T03:43:43.088Z,8.64
2019-03-29T03:46:22.881Z,8.61
2019-03-29T03:48:56.577Z,8.60
2019-03-29T03:51:30.281Z,8.57
2019-03-29T03:54:04.233Z,8.56
2019-03-29T03:56:38.728Z,8.53
2019-03-29T03:59:12.663Z,8.48
2019-03-29T04:01:46.361Z,8.47
2019-03-29T04:04:20.083Z,8.44
2019-03-29T04:06:53.795Z,8.42
2019-03-29T04:09:27.522Z,8.41
2019-03-29T04:12:01.181Z,8.39
2019-03-29T04:14:34.890Z,8.34
2019-03-29T04:17:08.680Z,8.33
2019-03-29T04:19:42.326Z,8.33
2019-03-29T04:22:15.985Z,8.31
2019-03-29T04:24:49.691Z,8.30
2019-03-29T04:27:23.283Z,8.30
2019-03-29T04:29:56.957Z,8.30
2019-03-29T04:32:30.575Z,8.31
2019-03-29T04:35:04.314Z,8.31
2019-03-29T04:37:37.952Z,8.29
2019-03-29T04:40:11.685Z,8.30
2019-03-29T04:42:45.290Z,8.30
2019-03-29T04:45:18.998Z,8.32
2019-03-29T04:47:52.616Z,8.35
2019-03-29T04:50:32.706Z,8.31
2019-03-29T04:53:11.353Z,8.32
2019-03-29T04:55:50.896Z,8.32
2019-03-29T04:58:36.007Z,8.30
2019-03-29T05:01:17.355Z,8.31
2019-03-29T05:03:49.328Z,8.31
2019-03-29T05:06:28.434Z,8.32
2019-03-29T05:09:09.825Z,8.34
2019-03-29T05:11:49.014Z,8.36
2019-03-29T05:14:28.185Z,8.43
2019-03-29T05:17:07.346Z,8.45
2019-03-29T05:19:46.546Z,8.49
2019-03-29T05:22:25.695Z,8.52
2019-03-29T05:25:04.784Z,8.52
2019-03-29T05:27:38.408Z,8.56
2019-03-29T05:30:21.560Z,8.59
2019-03-29T05:32:56.283Z,8.64
2019-03-29T05:35:30.155Z,8.67
2019-03-29T05:38:32.319Z,8.73
2019-03-29T05:41:22.414Z,8.75
2019-03-29T05:44:01.476Z,8.80
2019-03-29T05:47:01.133Z,8.82
2019-03-29T05:49:47.581Z,8.86
2019-03-29T05:52:21.255Z,8.93
2019-03-29T05:54:54.955Z,9.00
2019-03-29T05:57:28.743Z,9.00
2019-03-29T06:00:02.695Z,9.07
2019-03-29T06:02:36.367Z,9.10
2019-03-29T06:05:10.265Z,9.13
2019-03-29T06:07:43.965Z,9.16
2019-03-29T06:10:17.573Z,9.20
2019-03-29T06:12:51.261Z,9.19
2019-03-29T06:15:24.973Z,9.26
2019-03-29T06:17:58.650Z,9.35
2019-03-29T06:20:32.246Z,9.38
2019-03-29T06:23:05.847Z,9.44
2019-03-29T06:25:39.458Z,9.47
2019-03-29T06:28:14.125Z,9.51
2019-03-29T06:30:50.024Z,9.51
2019-03-29T06:33:23.732Z,9.51
2019-03-29T06:35:59.691Z,9.58
2019-03-29T06:38:35.624Z,9.69
2019-03-29T06:41:09.234Z,9.68
2019-03-29T06:43:42.901Z,9.76
2019-03-29T06:46:16.533Z,9.91
2019-03-29T06:48:50.191Z,9.94
2019-03-29T06:51:23.931Z,10.08
2019-03-29T06:53:57.641Z,10.09
2019-03-29T06:56:31.292Z,10.10
2019-03-29T06:59:05.020Z,10.16
2019-03-29T07:01:38.640Z,10.21
2019-03-29T07:04:12.335Z,10.26
2019-03-29T07:06:45.973Z,10.41
2019-03-29T07:09:19.974Z,10.43
2019-03-29T07:11:53.671Z,10.46
2019-03-29T07:14:27.318Z,10.51
2019-03-29T07:17:00.941Z,10.64
2019-03-29T07:19:34.588Z,10.74
2019-03-29T07:22:08.217Z,10.91
2019-03-29T07:24:41.907Z,10.98
2019-03-29T07:27:15.621Z,10.88
2019-03-29T07:29:49.252Z,10.82
2019-03-29T07:32:23.050Z,10.84
2019-03-29T07:34:56.707Z,10.82
2019-03-29T07:37:30.336Z,10.85
2019-03-29T07:40:04.016Z,10.95
2019-03-29T07:42:37.690Z,10.86
2019-03-29T07:45:11.583Z,10.84
2019-03-29T07:47:45.152Z,10.64
2019-03-29T07:50:19.207Z,10.57
2019-03-29T07:52:53.014Z,10.64
2019-03-29T07:55:26.665Z,10.67
2019-03-29T07:58:00.340Z,10.70
2019-03-29T08:00:33.966Z,10.63
2019-03-29T08:03:07.571Z,10.53
2019-03-29T08:05:41.197Z,10.67
2019-03-29T08:08:23.923Z,10.75
2019-03-29T08:10:53.447Z,10.84
2019-03-29T08:13:25.576Z,10.89
2019-03-29T08:15:59.610Z,10.83
2019-03-29T08:18:33.232Z,10.85
2019-03-29T08:21:06.902Z,10.80
2019-03-29T08:23:40.960Z,10.80
2019-03-29T08:26:14.652Z,10.76
2019-03-29T08:28:49.900Z,10.75
2019-03-29T08:31:23.579Z,10.77
2019-03-29T08:33:57.206Z,10.87
2019-03-29T08:36:30.876Z,10.89
2019-03-29T08:39:06.136Z,10.94
2019-03-29T08:41:39.809Z,10.96
2019-03-29T08:44:13.462Z,11.00
2019-03-29T08:46:47.182Z,11.06
2019-03-29T08:49:20.840Z,10.96
2019-03-29T08:51:54.424Z,11.00
2019-03-29T08:54:28.035Z,11.15
2019-03-29T08:57:01.645Z,11.19
2019-03-29T08:59:35.323Z,11.11
2019-03-29T09:02:09.310Z,11.17
2019-03-29T09:04:44.440Z,11.13
2019-03-29T09:07:18.467Z,11.20
2019-03-29T09:09:52.191Z,11.28
2019-03-29T09:12:25.829Z,11.40
2019-03-29T09:15:03.261Z,11.43
2019-03-29T09:17:34.933Z,11.37
2019-03-29T09:20:10.839Z,11.33
2019-03-29T09:22:44.489Z,11.27
2019-03-29T09:25:20.916Z,11.25
2019-03-29T09:27:53.664Z,11.17
2019-03-29T09:30:27.324Z,11.20
2019-03-29T09:33:00.983Z,11.28
2019-03-29T09:35:34.659Z,11.29
2019-03-29T09:38:08.293Z,11.25
2019-03-29T09:40:41.876Z,11.20
2019-03-29T09:43:15.559Z,11.12
2019-03-29T09:45:49.157Z,11.12
2019-03-29T09:48:22.714Z,11.22
2019-03-29T09:50:56.345Z,11.16
2019-03-29T09:53:31.741Z,11.12
2019-03-29T09:56:05.536Z,11.15
2019-03-29T09:58:39.155Z,11.18
2019-03-29T10:01:12.827Z,11.14
2019-03-29T10:03:46.549Z,11.18
2019-03-29T10:06:20.348Z,11.21
2019-03-29T10:08:55.558Z,11.31
2019-03-29T10:11:29.783Z,11.41
2019-03-29T10:14:03.447Z,11.39
2019-03-29T10:16:37.085Z,11.41
2019-03-29T10:19:10.695Z,11.34
2019-03-29T10:21:44.346Z,11.43
2019-03-29T10:24:17.955Z,11.48
2019-03-29T10:26:51.559Z,11.54
2019-03-29T10:29:25.231Z,11.51
2019-03-29T10:31:58.879Z,11.48
2019-03-29T10:34:37.390Z,11.52
2019-03-29T10:37:10.082Z,11.42
2019-03-29T10:39:45.094Z,11.50
2019-03-29T10:42:18.693Z,11.51
2019-03-29T10:44:52.305Z,11.54
2019-03-29T10:47:42.542Z,11.72
2019-03-29T10:50:01.395Z,11.97
2019-03-29T10:52:35.055Z,12.11
2019-03-29T10:55:08.979Z,12.28
2019-03-29T10:57:42.573Z,12.46
2019-03-29T11:00:24.106Z,12.60
2019-03-29T11:02:57.788Z,12.78
2019-03-29T11:05:31.468Z,13.10
2019-03-29T11:08:05.225Z,13.22
2019-03-29T11:10:39.909Z,13.35
2019-03-29T11:13:14.447Z,13.47
2019-03-29T11:15:48.356Z,13.64
2019-03-29T11:18:22.033Z,13.57
2019-03-29T11:20:55.672Z,13.63
2019-03-29T11:23:29.264Z,13.73
2019-03-29T11:26:03.018Z,13.76
2019-03-29T11:28:36.615Z,13.87
2019-03-29T11:31:10.204Z,13.92
2019-03-29T11:33:45.587Z,13.98
2019-03-29T11:36:19.592Z,13.96
2019-03-29T11:38:54.421Z,14.09
2019-03-29T11:41:30.007Z,13.95
2019-03-29T11:44:03.625Z,13.80
2019-03-29T11:46:38.268Z,13.82
2019-03-29T11:49:12.209Z,13.83
2019-03-29T11:51:49.135Z,13.78
2019-03-29T11:54:22.784Z,13.75
2019-03-29T11:56:56.464Z,13.83
2019-03-29T11:59:31.233Z,13.82
2019-03-29T12:02:04.934Z,13.85
2019-03-29T12:04:38.646Z,13.84
2019-03-29T12:07:14.101Z,13.87
2019-03-29T12:09:49.131Z,13.97
2019-03-29T12:12:22.808Z,13.99
2019-03-29T12:14:56.410Z,14.14
2019-03-29T12:17:30.035Z,14.23
2019-03-29T12:20:05.000Z,14.62
2019-03-29T12:22:38.672Z,14.74
2019-03-29T12:25:12.353Z,14.83
2019-03-29T12:27:46.020Z,14.93
2019-03-29T12:30:31.429Z,15.26
2019-03-29T12:32:55.322Z,15.30
2019-03-29T12:35:29.002Z,15.17
2019-03-29T12:38:04.317Z,15.33
2019-03-29T12:40:38.121Z,15.50
2019-03-29T12:43:12.778Z,15.49
2019-03-29T12:45:46.533Z,15.45
2019-03-29T12:48:20.106Z,15.47
2019-03-29T12:50:53.729Z,15.75
2019-03-29T12:53:27.354Z,15.68
2019-03-29T12:56:00.972Z,15.58
2019-03-29T12:58:35.827Z,15.45
2019-03-29T13:01:09.671Z,15.56
2019-03-29T13:03:43.457Z,15.70
2019-03-29T13:06:17.098Z,15.51
2019-03-29T13:08:50.774Z,15.54
2019-03-29T13:11:24.500Z,15.39
2019-03-29T13:14:09.636Z,15.32
2019-03-29T13:16:33.547Z,15.17
2019-03-29T13:19:07.152Z,14.84
2019-03-29T13:21:41.799Z,14.83
2019-03-29T13:24:16.094Z,14.84
2019-03-29T13:26:50.089Z,14.78
2019-03-29T13:29:23.716Z,14.61
2019-03-29T13:31:57.392Z,14.58
2019-03-29T13:34:31.030Z,14.40
2019-03-29T13:37:04.621Z,14.26
2019-03-29T13:39:38.304Z,14.14
2019-03-29T13:42:11.955Z,14.06
2019-03-29T13:44:45.960Z,14.09
2019-03-29T13:47:20.780Z,14.04
2019-03-29T13:49:54.453Z,14.00
2019-03-29T13:52:31.111Z,13.83
2019-03-29T13:55:04.375Z,13.77
2019-03-29T13:57:37.952Z,13.74
2019-03-29T14:00:13.728Z,13.72
2019-03-29T14:02:47.329Z,13.77
2019-03-29T14:05:20.968Z,13.75
2019-03-29T14:07:54.633Z,13.66
2019-03-29T14:10:28.223Z,13.62
2019-03-29T14:13:03.097Z,13.59
2019-03-29T14:15:36.825Z,13.53
2019-03-29T14:18:10.597Z,13.48
2019-03-29T14:20:44.383Z,13.47
2019-03-29T14:23:18.116Z,13.38
2019-03-29T14:25:51.734Z,13.32
2019-03-29T14:28:25.491Z,13.26
2019-03-29T14:30:59.212Z,13.25
2019-03-29T14:33:32.907Z,13.22
2019-03-29T14:36:06.627Z,13.18
2019-03-29T14:38:40.269Z,13.16
2019-03-29T14:41:13.891Z,13.17
2019-03-29T14:43:47.509Z,13.18
2019-03-29T14:46:21.237Z,13.20
2019-03-29T14:48:54.960Z,13.22
2019-03-29T14:51:28.665Z,13.24
2019-03-29T14:54:02.682Z,13.23
2019-03-29T14:56:36.279Z,13.23
2019-03-29T14:59:10.035Z,13.26
2019-03-29T15:01:43.706Z,13.24
2019-03-29T15:04:17.880Z,13.22
2019-03-29T15:06:51.597Z,13.17
2019-03-29T15:09:25.789Z,13.10
2019-03-29T15:11:59.615Z,13.08
2019-03-29T15:14:35.466Z,13.05
2019-03-29T15:17:09.241Z,12.96
2019-03-29T15:19:42.890Z,12.99
2019-03-29T15:22:16.641Z,12.95
2019-03-29T15:24:50.356Z,12.93
2019-03-29T15:27:24.056Z,12.93
2019-03-29T15:29:57.819Z,12.89
2019-03-29T15:32:31.545Z,12.83
2019-03-29T15:35:05.197Z,12.77
2019-03-29T15:37:38.856Z,12.75
2019-03-29T15:40:12.909Z,12.71
2019-03-29T15:42:46.665Z,12.67
2019-03-29T15:45:21.937Z,12.63
2019-03-29T15:47:55.583Z,12.63
2019-03-29T15:50:29.248Z,12.66
2019-03-29T15:53:03.039Z,12.63
2019-03-29T15:55:36.789Z,12.63
2019-03-29T15:58:10.660Z,12.61
2019-03-29T16:00:44.749Z,12.59
2019-03-29T16:03:18.739Z,12.57
2019-03-29T16:05:52.736Z,12.54
2019-03-29T16:08:26.614Z,12.53
2019-03-29T16:11:00.466Z,12.51
2019-03-29T16:13:36.446Z,12.50
2019-03-29T16:16:10.286Z,12.51
2019-03-29T16:18:46.803Z,12.49
2019-03-29T16:21:20.663Z,12.48
2019-03-29T16:23:54.640Z,12.49
2019-03-29T16:26:28.508Z,12.47
2019-03-29T16:29:02.344Z,12.48
2019-03-29T16:31:37.583Z,12.45
2019-03-29T16:34:11.236Z,12.39
2019-03-29T16:36:47.915Z,12.34
2019-03-29T16:39:21.602Z,12.32
2019-03-29T16:41:55.282Z,12.28
2019-03-29T16:44:29.192Z,12.25
2019-03-29T16:47:03.124Z,12.24
2019-03-29T16:49:37.136Z,12.20
2019-03-29T16:52:12.239Z,12.14
2019-03-29T16:54:46.307Z,12.10
2019-03-29T16:57:21.021Z,12.08
2019-03-29T16:59:54.788Z,12.05
2019-03-29T17:02:29.295Z,12.04
2019-03-29T17:05:03.188Z,12.02
2019-03-29T17:07:37.208Z,11.97
2019-03-29T17:10:11.652Z,11.94
2019-03-29T17:12:45.576Z,11.92
2019-03-29T17:15:19.371Z,11.88
2019-03-29T17:17:53.151Z,11.83
2019-03-29T17:20:26.854Z,11.85
2019-03-29T17:23:00.723Z,11.83
2019-03-29T17:25:35.187Z,11.82
2019-03-29T17:28:08.981Z,11.81
2019-03-29T17:30:47.328Z,11.78
2019-03-29T17:33:22.481Z,11.74
2019-03-29T17:35:57.375Z,11.72
2019-03-29T17:38:31.345Z,11.68
2019-03-29T17:41:05.193Z,11.65
2019-03-29T17:43:39.060Z,11.62
2019-03-29T17:46:16.437Z,11.59
2019-03-29T17:48:48.365Z,11.54
2019-03-29T17:51:23.433Z,11.52
2019-03-29T17:54:00.297Z,11.51
2019-03-29T17:56:34.321Z,11.45
2019-03-29T17:59:08.328Z,11.42
2019-03-29T18:01:42.019Z,11.40
2019-03-29T18:04:15.902Z,11.40
2019-03-29T18:06:49.692Z,11.37
2019-03-29T18:09:23.462Z,11.37
2019-03-29T18:11:57.253Z,11.39
2019-03-29T18:14:31.516Z,11.38
2019-03-29T18:17:05.435Z,11.37
2019-03-29T18:19:39.285Z,11.37
2019-03-29T18:22:12.967Z,11.34
2019-03-29T18:24:47.335Z,11.32
2019-03-29T18:27:22.113Z,11.30
2019-03-29T18:29:55.923Z,11.27
2019-03-29T18:32:29.991Z,11.28
2019-03-29T18:35:03.762Z,11.25
2019-03-29T18:37:37.639Z,11.21
2019-03-29T18:40:27.032Z,11.19
2019-03-29T18:43:00.981Z,11.17
2019-03-29T18:45:34.823Z,11.13
2019-03-29T18:48:08.767Z,11.08
2019-03-29T18:50:42.594Z,11.08
2019-03-29T18:53:16.833Z,11.06
2019-03-29T18:55:50.529Z,11.05
2019-03-29T18:58:24.276Z,11.03
2019-03-29T19:00:58.032Z,11.03
2019-03-29T19:03:31.869Z,11.01
2019-03-29T19:06:05.976Z,11.03
2019-03-29T19:08:40.087Z,11.03
2019-03-29T19:11:14.048Z,11.04
2019-03-29T19:13:48.119Z,11.02
2019-03-29T19:16:21.923Z,11.02
2019-03-29T19:19:09.173Z,11.03
2019-03-29T19:21:31.621Z,11.03
2019-03-29T19:24:05.304Z,11.02
2019-03-29T19:26:39.291Z,11.01
2019-03-29T19:29:13.220Z,11.00
2019-03-29T19:31:47.234Z,11.00
2019-03-29T19:34:21.191Z,10.99
2019-03-29T19:36:55.229Z,10.98
2019-03-29T19:39:29.099Z,10.98
2019-03-29T19:42:03.025Z,10.99
2019-03-29T19:44:36.805Z,10.99
2019-03-29T19:47:13.844Z,10.98
2019-03-29T19:49:46.333Z,10.97
2019-03-29T19:52:20.227Z,10.96
2019-03-29T19:54:53.931Z,10.96
2019-03-29T19:57:27.746Z,10.97
2019-03-29T20:00:01.651Z,10.95
2019-03-29T20:02:35.467Z,10.92
2019-03-29T20:05:27.724Z,10.92
2019-03-29T20:08:01.775Z,10.87
2019-03-29T20:10:37.701Z,10.83
2019-03-29T20:13:11.378Z,10.78
2019-03-29T20:15:45.203Z,10.76
2019-03-29T20:18:20.064Z,10.74
2019-03-29T20:20:54.118Z,10.71
2019-03-29T20:23:27.813Z,10.64
2019-03-29T20:26:01.837Z,10.64
2019-03-29T20:28:38.393Z,10.56
2019-03-29T20:31:12.499Z,10.50
2019-03-29T20:33:46.676Z,10.49
2019-03-29T20:36:23.383Z,10.46
2019-03-29T20:38:57.176Z,10.44
2019-03-29T20:41:31.005Z,10.45
2019-03-29T20:44:04.868Z,10.44
2019-03-29T20:46:38.869Z,10.42
2019-03-29T20:49:12.740Z,10.41
2019-03-29T20:51:47.373Z,10.37
2019-03-29T20:54:21.303Z,10.33
2019-03-29T20:56:55.161Z,10.32
2019-03-29T20:59:29.298Z,10.30
2019-03-29T21:02:03.266Z,10.28
2019-03-29T21:04:37.343Z,10.22
2019-03-29T21:07:12.950Z,10.21
2019-03-29T21:09:55.585Z,10.19
2019-03-29T21:12:29.407Z,10.18
2019-03-29T21:15:04.272Z,10.14
2019-03-29T21:17:39.527Z,10.13
2019-03-29T21:20:14.285Z,10.09
2019-03-29T21:22:48.578Z,10.09
2019-03-29T21:25:22.268Z,10.05
2019-03-29T21:27:55.956Z,10.01
2019-03-29T21:30:30.104Z,10.00
2019-03-29T21:33:06.803Z,9.98
2019-03-29T21:35:40.706Z,9.95
2019-03-29T21:38:14.470Z,9.93
2019-03-29T21:40:48.157Z,9.90
2019-03-29T21:43:22.321Z,9.87
2019-03-29T21:45:56.228Z,9.85
2019-03-29T21:48:30.034Z,9.83
2019-03-29T21:51:04.523Z,9.83
2019-03-29T21:53:38.448Z,9.82
2019-03-29T21:56:12.239Z,9.81
2019-03-29T21:58:46.240Z,9.77
2019-03-29T22:01:20.216Z,9.75
2019-03-29T22:03:55.652Z,9.71
2019-03-29T22:06:29.441Z,9.65
2019-03-29T22:09:06.597Z,9.64
2019-03-29T22:11:41.935Z,9.61
2019-03-29T22:14:15.828Z,9.60
2019-03-29T22:16:49.715Z,9.57
2019-03-29T22:19:23.476Z,9.49
2019-03-29T22:21:57.126Z,9.44
2019-03-29T22:24:30.746Z,9.39
2019-03-29T22:27:04.476Z,9.35
2019-03-29T22:29:38.174Z,9.31
2019-03-29T22:32:12.023Z,9.28
2019-03-29T22:34:45.886Z,9.23
2019-03-29T22:37:19.767Z,9.18
2019-03-29T22:39:53.564Z,9.12
2019-03-29T22:42:28.424Z,9.04
2019-03-29T22:45:02.293Z,8.96
2019-03-29T22:47:36.154Z,8.87
2019-03-29T22:50:10.578Z,8.80
2019-03-29T22:52:44.657Z,8.74
2019-03-29T22:55:18.445Z,8.69
2019-03-29T22:57:52.554Z,8.64
2019-03-29T23:00:36.648Z,8.58
2019-03-29T23:03:12.094Z,8.53
2019-03-29T23:05:45.792Z,8.44
2019-03-29T23:08:19.503Z,8.38
2019-03-29T23:10:53.232Z,8.31
2019-03-29T23:13:27.058Z,8.26
2019-03-29T23:16:00.960Z,8.22
2019-03-29T23:18:34.761Z,8.18
2019-03-29T23:21:08.427Z,8.13
2019-03-29T23:23:42.040Z,8.04
2019-03-29T23:26:15.855Z,7.91
2019-03-29T23:28:51.117Z,7.79
2019-03-29T23:31:24.868Z,7.66
2019-03-29T23:33:58.705Z,7.56
2019-03-29T23:36:32.404Z,7.50
2019-03-29T23:39:07.018Z,7.44
2019-03-29T23:41:40.703Z,7.38
2019-03-29T23:44:14.483Z,7.37
2019-03-29T23:46:49.237Z,7.31
2019-03-29T23:49:22.970Z,7.26
2019-03-29T23:51:56.668Z,7.22
2019-03-29T23:54:30.398Z,7.20
2019-03-29T23:57:04.020Z,7.14
2019-03-29T23:59:37.705Z,7.07
